Track Корчагин Владимир

Time Latitude Longitude Accuracy (66% radius in meters) Altitude (meters) Speed (km/hour) Bearing (degrees) Battery (%) GPS flag
14:46:07 59.876777 29.925835 6.1999998092651 37.3 5.0283212661743 100.76000213623 66 1 delete
14:45:59 59.876765 29.925598 6.0999999046326 38.5 0 339.69000244141 66 1 delete
14:45:53 59.876648 29.925613 5.9000000953674 38.6 0 255.46000671387 66 1 delete
14:45:45 59.876522 29.925675 6.1999998092651 40.7 0 255.46000671387 66 1 delete
14:45:41 59.876400 29.925623 6.9000000953674 42 0 255.46000671387 66 1 delete
14:45:31 59.876282 29.925738 5.9000000953674 46.7 0 146.05999755859 66 1 delete
14:45:29 59.876257 29.925733 5.9000000953674 50.7 0 142.16999816895 66 1 delete
14:45:21 59.876170 29.925765 5.5999999046326 60.2 0 177.89999389648 66 1 delete
14:45:15 59.876152 29.925805 5.8000001907349 60.7 0 128.50999450684 66 1 delete
14:45:11 59.876058 29.925765 7 80.7 0 128.50999450684 66 1 delete
14:45:09 59.875947 29.925710 8.1000003814697 96.1 0 128.50999450684 66 1 delete
14:45:07 59.875570 29.925648 9.6999998092651 153.7 0 128.50999450684 66 1 delete
15:45:00 59.875825 29.926203 7 70.8 0 270.95001220703 66 0 delete
15:44:47 59.875825 29.926203 7 70.8 0 270.95001220703 66 0 delete
14:44:33 59.875812 29.926080 7.5 70.9 0 270.95001220703 66 1 delete
14:44:25 59.875825 29.926203 7 70.8 0 270.95001220703 66 1 delete
14:44:21 59.875915 29.926120 7.0999999046326 70.8 0 270.95001220703 66 1 delete
14:44:13 59.875958 29.926002 6.5999999046326 70.7 1.6465964317322 270.95001220703 66 1 delete
14:44:09 59.876025 29.926048 6.3000001907349 71.2 0 289.51000976562 66 1 delete
14:44:07 59.876058 29.926262 6.5 71.9 4.7524304389954 298.4700012207 66 1 delete
14:44:05 59.876133 29.926547 6.9000000953674 72.6 0 328.95001220703 66 1 delete
14:44:02 59.876228 29.926685 8.3000001907349 73.6 0 112.44999694824 66 1 delete
14:44:00 59.876432 29.926798 9.5 74 0 112.44999694824 66 1 delete
14:43:54 59.876535 29.926695 9.6999998092651 73.9 0 101.40000152588 66 1 delete
15:43:52 59.876615 29.925890 9.6999998092651 74.5 0 22.010000228882 66 0 delete
14:43:39 59.876615 29.925890 9.6999998092651 74.5 0 22.010000228882 66 1 delete
14:43:27 59.876535 29.925507 7.4000000953674 75.1 0 22.010000228882 66 1 delete
14:43:15 59.876423 29.925562 6.5 76 0 22.010000228882 66 1 delete
14:43:09 59.876522 29.925605 6.1999998092651 77.4 0 22.010000228882 66 1 delete
14:43:07 59.876417 29.925490 6.4000000953674 77.8 0 22.010000228882 66 1 delete
14:42:55 59.876270 29.925458 6.0999999046326 79.5 0 22.010000228882 66 1 delete
14:42:51 59.876215 29.925263 6.4000000953674 80.7 0 22.010000228882 66 1 delete
14:42:49 59.876192 29.925038 6.9000000953674 81.5 1.5487991571426 34.75 66 1 delete
14:42:47 59.876233 29.924803 7.5999999046326 82.2 2.1834516525269 11.789999961853 66 1 delete
14:42:41 59.876128 29.924702 7.8000001907349 82.1 0 350.05999755859 66 1 delete
14:42:37 59.875932 29.924507 8 81.9 0 279.89001464844 66 1 delete
14:42:33 59.875962 29.924567 7.3000001907349 81.8 1.8699858188629 289.76998901367 66 1 delete
14:42:27 59.875912 29.924745 7.5999999046326 81.4 0 127.70999908447 66 1 delete
14:42:25 59.875978 29.924740 7.8000001907349 81.4 0 128.46000671387 66 1 delete
14:42:18 59.876005 29.924665 7.6999998092651 81.3 2.2719838619232 143.69000244141 66 1 delete
14:42:15 59.876035 29.924575 7.3000001907349 81.2 1.5673291683197 159.64999389648 66 1 delete
14:42:11 59.875970 29.924498 7.3000001907349 81.2 3.4666540622711 199.49000549316 66 1 delete
14:42:09 59.876027 29.924660 7.4000000953674 81.2 0 190.88999938965 66 1 delete
14:42:08 59.876113 29.924798 7.5999999046326 81.2 0 175.61999511719 66 1 delete
14:42:06 59.876270 29.924995 8 81.3 0 135.91000366211 66 1 delete
14:42:03 59.876317 29.925020 8.1999998092651 81.3 0 130.30999755859 66 1 delete
14:41:53 59.876372 29.924935 8 80.9 0 338.64001464844 66 1 delete
14:41:49 59.876323 29.924707 8 80.7 0 338.64001464844 66 1 delete
14:41:41 59.876273 29.924497 7.5 80.3 0 101.06999969482 66 1 delete
14:41:39 59.876305 29.924515 7.4000000953674 80.2 0 340.91000366211 66 1 delete